Time;durP1;ratioP1;P1;durP2;ratioP2;P2;SDS_P1;SDS_P2;PMS_P1;PMS_P2;Temp;Humidity;BMP_temperature;BMP_pressure;BME280_temperature;BME280_humidity;BME280_pressure;Samples;Min_cycle;Max_cycle;Signal;HPM_P1;HPM_P2
2021/05/23 00:01:00;;;;;;;22.05;13.02;;;;;;;;;;5046760;28;20040;-66
2021/05/23 00:03:26;;;;;;;19.20;12.18;;;;;;;;;;5047516;28;20025;-66
2021/05/23 00:05:52;;;;;;;11.98;6.85;;;;;;;;;;5046799;28;20380;-60
2021/05/23 00:08:20;;;;;;;13.23;8.93;;;;;;;;;;5047000;28;20024;-62
2021/05/23 00:11:00;;;;;;;23.45;14.57;;;;;;;;;;5046901;28;20035;-66
2021/05/23 00:13:27;;;;;;;19.00;10.45;;;;;;;;;;5047034;28;20127;-66
2021/05/23 00:15:55;;;;;;;53.75;31.13;;;;;;;;;;5045863;28;20029;-62
2021/05/23 00:18:22;;;;;;;21.15;13.65;;;;;;;;;;5047074;28;20046;-64
2021/05/23 00:20:48;;;;;;;33.40;18.67;;;;;;;;;;5046762;28;20032;-61
2021/05/23 00:23:14;;;;;;;12.43;7.97;;;;;;;;;;5046842;28;20056;-71
2021/05/23 00:25:41;;;;;;;34.85;22.02;;;;;;;;;;5046988;28;20119;-65
2021/05/23 00:28:07;;;;;;;32.55;20.67;;;;;;;;;;5046848;28;20028;-59
2021/05/23 00:30:33;;;;;;;42.13;24.85;;;;;;;;;;5046734;28;21500;-62
2021/05/23 00:33:00;;;;;;;67.32;30.17;;;;;;;;;;5046831;28;20028;-59
2021/05/23 00:35:26;;;;;;;24.02;11.35;;;;;;;;;;5046477;28;20549;-60
2021/05/23 00:37:57;;;;;;;31.58;15.52;;;;;;;;;;5046600;28;20035;-67
2021/05/23 00:40:23;;;;;;;22.80;13.80;;;;;;;;;;5046356;28;20016;-59
2021/05/23 00:42:49;;;;;;;16.65;10.52;;;;;;;;;;5046382;28;20408;-60
2021/05/23 00:45:16;;;;;;;11.60;7.97;;;;;;;;;;5046102;28;20427;-59
2021/05/23 00:47:43;;;;;;;15.02;9.68;;;;;;;;;;5046430;28;20036;-63
2021/05/23 00:50:10;;;;;;;15.20;7.97;;;;;;;;;;5046225;28;20033;-60
2021/05/23 00:52:36;;;;;;;15.63;8.00;;;;;;;;;;5046269;28;20089;-60
2021/05/23 00:55:05;;;;;;;17.83;11.77;;;;;;;;;;5046367;28;20039;-60
2021/05/23 00:57:32;;;;;;;17.42;9.93;;;;;;;;;;5046181;28;20024;-60
2021/05/23 00:59:59;;;;;;;57.67;33.50;;;;;;;;;;5046263;28;20508;-60
2021/05/23 01:02:46;;;;;;;19.63;12.98;;;;;;;;;;5046187;28;20040;-63
2021/05/23 01:05:14;;;;;;;44.97;26.83;;;;;;;;;;5046516;28;21058;-60
2021/05/23 01:07:41;;;;;;;17.67;11.23;;;;;;;;;;5047827;28;20392;-69
2021/05/23 01:10:12;;;;;;;15.82;10.43;;;;;;;;;;5053157;28;20022;-63
2021/05/23 01:12:59;;;;;;;11.90;8.10;;;;;;;;;;5053292;28;20017;-63
2021/05/23 01:15:29;;;;;;;18.80;12.65;;;;;;;;;;4991813;28;20114;-67
2021/05/23 01:17:55;;;;;;;22.75;12.30;;;;;;;;;;4991952;28;20038;-66
2021/05/23 01:20:27;;;;;;;23.65;12.60;;;;;;;;;;4991532;28;20402;-59
2021/05/23 01:22:56;;;;;;;12.52;7.72;;;;;;;;;;4991946;28;20041;-60
2021/05/23 01:25:25;;;;;;;30.17;17.00;;;;;;;;;;4975654;28;20094;-60
2021/05/23 01:27:52;;;;;;;27.35;15.55;;;;;;;;;;4997703;28;20093;-59
2021/05/23 01:30:20;;;;;;;14.90;8.25;;;;;;;;;;4998349;28;20117;-61
2021/05/23 01:32:47;;;;;;;31.38;17.27;;;;;;;;;;4998280;28;20034;-59
2021/05/23 01:35:22;;;;;;;54.17;31.70;;;;;;;;;;4998234;28;20093;-60
2021/05/23 01:37:50;;;;;;;33.95;17.92;;;;;;;;;;4998317;28;20498;-61
2021/05/23 01:40:18;;;;;;;29.33;18.95;;;;;;;;;;4998214;28;20045;-62
2021/05/23 01:42:44;;;;;;;23.60;12.27;;;;;;;;;;4998274;28;20129;-61
2021/05/23 01:45:11;;;;;;;18.33;11.15;;;;;;;;;;4998037;28;20166;-61
2021/05/23 01:47:37;;;;;;;22.45;14.25;;;;;;;;;;4998219;28;20113;-58
2021/05/23 01:50:03;;;;;;;16.80;8.32;;;;;;;;;;4998079;28;20041;-58
2021/05/23 01:52:29;;;;;;;15.07;8.35;;;;;;;;;;5029433;28;20044;-59
2021/05/23 01:54:56;;;;;;;27.25;15.93;;;;;;;;;;5059415;28;20031;-58
2021/05/23 01:57:22;;;;;;;17.73;9.30;;;;;;;;;;5059599;28;20021;-58
2021/05/23 01:59:48;;;;;;;23.90;14.75;;;;;;;;;;5059468;28;20107;-55
2021/05/23 02:02:14;;;;;;;15.55;8.93;;;;;;;;;;5059450;28;20046;-55
2021/05/23 02:04:40;;;;;;;27.20;14.77;;;;;;;;;;5059400;28;20163;-57
2021/05/23 02:07:07;;;;;;;10.48;7.38;;;;;;;;;;5059369;28;20025;-58
2021/05/23 02:09:33;;;;;;;8.75;6.68;;;;;;;;;;5059329;28;20127;-56
2021/05/23 02:11:59;;;;;;;14.18;8.18;;;;;;;;;;5059573;28;20387;-60
2021/05/23 02:14:25;;;;;;;13.10;7.88;;;;;;;;;;5059288;28;20036;-58
2021/05/23 02:16:55;;;;;;;15.85;9.02;;;;;;;;;;5059626;28;20037;-59
2021/05/23 02:19:21;;;;;;;12.75;8.00;;;;;;;;;;5059334;28;20021;-59
2021/05/23 02:21:49;;;;;;;9.07;6.75;;;;;;;;;;5059229;28;20068;-55
2021/05/23 02:24:15;;;;;;;13.48;6.50;;;;;;;;;;5059391;28;20107;-55
2021/05/23 02:26:42;;;;;;;10.30;6.20;;;;;;;;;;5059429;28;20079;-58
2021/05/23 02:29:08;;;;;;;9.40;6.57;;;;;;;;;;5059443;28;20066;-56
2021/05/23 02:31:34;;;;;;;8.55;6.28;;;;;;;;;;5059458;28;20059;-58
2021/05/23 02:34:01;;;;;;;9.38;7.00;;;;;;;;;;5059222;28;20364;-58
2021/05/23 02:36:27;;;;;;;9.80;6.68;;;;;;;;;;5059484;28;20032;-58
2021/05/23 02:38:53;;;;;;;7.78;6.57;;;;;;;;;;5055961;28;20075;-58
2021/05/23 02:41:19;;;;;;;13.35;6.78;;;;;;;;;;5056026;28;20029;-59
2021/05/23 02:43:45;;;;;;;13.10;6.32;;;;;;;;;;5056167;28;20545;-59
2021/05/23 02:46:13;;;;;;;10.48;6.22;;;;;;;;;;5056212;28;20070;-60
2021/05/23 02:48:39;;;;;;;11.85;8.00;;;;;;;;;;5055942;28;20013;-60
2021/05/23 02:51:06;;;;;;;14.35;8.45;;;;;;;;;;5055488;28;20041;-62
2021/05/23 02:53:32;;;;;;;12.73;7.10;;;;;;;;;;5056118;28;20033;-61
2021/05/23 02:55:58;;;;;;;12.60;6.63;;;;;;;;;;5055818;28;20029;-62
2021/05/23 02:58:24;;;;;;;9.73;7.32;;;;;;;;;;5055789;28;20408;-61
2021/05/23 03:00:51;;;;;;;9.15;7.03;;;;;;;;;;5055634;28;20051;-61
2021/05/23 03:03:17;;;;;;;10.20;6.53;;;;;;;;;;5055680;28;20111;-60
2021/05/23 03:05:44;;;;;;;9.70;6.57;;;;;;;;;;5055940;28;20021;-58
2021/05/23 03:08:10;;;;;;;8.75;6.78;;;;;;;;;;5055735;28;20036;-55
2021/05/23 03:10:37;;;;;;;8.18;6.30;;;;;;;;;;5055666;28;20021;-58
2021/05/23 03:13:04;;;;;;;9.50;6.15;;;;;;;;;;5055410;28;20052;-55
2021/05/23 03:15:31;;;;;;;10.82;6.82;;;;;;;;;;5055436;28;20102;-55
2021/05/23 03:17:57;;;;;;;11.68;7.20;;;;;;;;;;5055362;28;20032;-58
2021/05/23 03:20:24;;;;;;;9.68;6.28;;;;;;;;;;5055139;28;20027;-58
2021/05/23 03:22:52;;;;;;;9.45;6.20;;;;;;;;;;5055459;28;20040;-55
2021/05/23 03:25:19;;;;;;;10.45;7.22;;;;;;;;;;5055354;28;20028;-58
2021/05/23 03:27:45;;;;;;;11.30;7.22;;;;;;;;;;5055389;28;20025;-59
2021/05/23 03:30:15;;;;;;;11.15;7.05;;;;;;;;;;5055073;28;20494;-55
2021/05/23 03:32:42;;;;;;;15.67;7.20;;;;;;;;;;5055102;28;20060;-58
2021/05/23 03:35:08;;;;;;;10.85;6.90;;;;;;;;;;5055155;28;20262;-59
2021/05/23 03:37:35;;;;;;;14.15;6.93;;;;;;;;;;5054998;28;20025;-59
2021/05/23 03:40:01;;;;;;;11.57;7.72;;;;;;;;;;5055053;28;20392;-59
2021/05/23 03:42:27;;;;;;;12.30;8.63;;;;;;;;;;5055127;28;20032;-60
2021/05/23 03:44:53;;;;;;;15.32;8.13;;;;;;;;;;5054847;28;20025;-59
2021/05/23 03:47:19;;;;;;;11.73;7.95;;;;;;;;;;5054934;28;20025;-58
2021/05/23 03:49:45;;;;;;;13.27;9.55;;;;;;;;;;5054719;28;20033;-59
2021/05/23 03:52:12;;;;;;;15.02;9.35;;;;;;;;;;5054674;28;20048;-59
2021/05/23 03:54:40;;;;;;;12.93;7.97;;;;;;;;;;5054858;28;20508;-60
2021/05/23 03:57:07;;;;;;;9.10;6.38;;;;;;;;;;5054623;28;20481;-55
2021/05/23 03:59:33;;;;;;;10.40;5.95;;;;;;;;;;5054722;28;20033;-60
2021/05/23 04:01:59;;;;;;;10.85;6.22;;;;;;;;;;5054498;28;20033;-55
2021/05/23 04:04:35;;;;;;;12.20;7.13;;;;;;;;;;5054679;28;20071;-59
2021/05/23 04:07:01;;;;;;;8.60;6.40;;;;;;;;;;5054544;28;20029;-58
2021/05/23 04:09:27;;;;;;;11.55;6.60;;;;;;;;;;5054569;28;20025;-58
2021/05/23 04:11:53;;;;;;;9.30;6.38;;;;;;;;;;5054474;28;20043;-59
2021/05/23 04:14:19;;;;;;;9.50;6.05;;;;;;;;;;5054251;28;20070;-59
2021/05/23 04:16:46;;;;;;;10.73;6.78;;;;;;;;;;5054307;28;20021;-55
2021/05/23 04:19:14;;;;;;;8.82;6.10;;;;;;;;;;5054343;28;20032;-58
2021/05/23 04:21:40;;;;;;;9.50;6.75;;;;;;;;;;5054056;28;20043;-59
2021/05/23 04:24:06;;;;;;;10.35;6.07;;;;;;;;;;5054401;28;20108;-59
2021/05/23 04:26:32;;;;;;;8.57;5.38;;;;;;;;;;5054225;28;20025;-59
2021/05/23 04:28:58;;;;;;;11.48;5.25;;;;;;;;;;5054012;28;20499;-58
2021/05/23 04:31:24;;;;;;;8.98;5.95;;;;;;;;;;5054113;28;20036;-59
2021/05/23 04:33:50;;;;;;;7.38;5.20;;;;;;;;;;5054010;28;20029;-59
2021/05/23 04:36:16;;;;;;;12.40;5.68;;;;;;;;;;5054156;28;20430;-58
2021/05/23 04:38:42;;;;;;;10.20;5.72;;;;;;;;;;5053952;28;20068;-58
2021/05/23 04:41:11;;;;;;;10.10;5.72;;;;;;;;;;5053877;28;20423;-57
2021/05/23 04:43:37;;;;;;;12.02;5.30;;;;;;;;;;5053878;28;20029;-58
2021/05/23 04:46:03;;;;;;;9.68;5.43;;;;;;;;;;5053677;28;20060;-59
2021/05/23 04:48:29;;;;;;;8.85;5.10;;;;;;;;;;5053884;28;20017;-55
2021/05/23 04:50:55;;;;;;;8.55;4.55;;;;;;;;;;5053578;28;20045;-59
2021/05/23 04:53:21;;;;;;;7.00;4.72;;;;;;;;;;5053597;28;20061;-59
2021/05/23 04:55:47;;;;;;;11.52;4.60;;;;;;;;;;5053703;28;20032;-59
2021/05/23 04:58:13;;;;;;;5.05;3.53;;;;;;;;;;5053716;28;20531;-58
2021/05/23 05:00:39;;;;;;;5.97;3.53;;;;;;;;;;5052997;28;20032;-58
2021/05/23 05:03:05;;;;;;;6.85;4.07;;;;;;;;;;5053330;28;20033;-58
2021/05/23 05:05:31;;;;;;;11.05;4.80;;;;;;;;;;5053490;28;20032;-58
2021/05/23 05:07:58;;;;;;;12.13;5.45;;;;;;;;;;5053580;28;20389;-58
2021/05/23 05:10:24;;;;;;;11.95;4.88;;;;;;;;;;5053473;28;20025;-59
2021/05/23 05:12:50;;;;;;;7.65;4.15;;;;;;;;;;5053359;28;20017;-58
2021/05/23 05:15:16;;;;;;;9.85;4.63;;;;;;;;;;5053447;28;20477;-55
2021/05/23 05:17:42;;;;;;;11.20;5.07;;;;;;;;;;5053303;28;20036;-59
2021/05/23 05:20:09;;;;;;;7.32;4.57;;;;;;;;;;5053245;28;20093;-60
2021/05/23 05:22:36;;;;;;;7.60;3.90;;;;;;;;;;5053384;28;20037;-59
2021/05/23 05:25:02;;;;;;;6.38;4.00;;;;;;;;;;5053374;28;20179;-59
2021/05/23 05:27:29;;;;;;;8.27;3.90;;;;;;;;;;5053118;28;20036;-60
2021/05/23 05:29:55;;;;;;;7.68;3.58;;;;;;;;;;5053135;28;20070;-59
2021/05/23 05:32:21;;;;;;;8.93;4.63;;;;;;;;;;5053176;28;20029;-55
2021/05/23 05:34:51;;;;;;;9.63;4.40;;;;;;;;;;5053150;28;20108;-59
2021/05/23 05:37:17;;;;;;;9.05;3.85;;;;;;;;;;5053495;28;20032;-60
2021/05/23 05:39:44;;;;;;;4.55;2.75;;;;;;;;;;5053110;28;20481;-59
2021/05/23 05:42:10;;;;;;;5.68;3.00;;;;;;;;;;5053137;28;20087;-60
2021/05/23 05:44:36;;;;;;;7.10;3.40;;;;;;;;;;5053362;28;20024;-61
2021/05/23 05:47:02;;;;;;;8.00;3.03;;;;;;;;;;5053200;28;20117;-59
2021/05/23 05:49:28;;;;;;;3.80;2.65;;;;;;;;;;5053153;28;20048;-59
2021/05/23 05:51:54;;;;;;;7.13;3.72;;;;;;;;;;5052740;28;20056;-59
2021/05/23 05:54:20;;;;;;;5.63;3.60;;;;;;;;;;5053132;28;20025;-61
2021/05/23 05:56:46;;;;;;;7.95;3.38;;;;;;;;;;5053187;28;20028;-61
2021/05/23 05:59:12;;;;;;;6.80;3.05;;;;;;;;;;5052995;28;20036;-58
2021/05/23 06:01:38;;;;;;;6.75;2.80;;;;;;;;;;5052830;28;20083;-56
2021/05/23 06:04:04;;;;;;;10.18;4.65;;;;;;;;;;5052797;28;20040;-57
2021/05/23 06:06:30;;;;;;;5.97;3.33;;;;;;;;;;5052948;28;20025;-62
2021/05/23 06:08:57;;;;;;;13.27;7.95;;;;;;;;;;5052834;28;20032;-61
2021/05/23 06:11:23;;;;;;;21.02;12.88;;;;;;;;;;5052838;28;20074;-61
2021/05/23 06:13:49;;;;;;;13.38;6.47;;;;;;;;;;5054439;28;20477;-61
2021/05/23 06:16:15;;;;;;;15.23;10.45;;;;;;;;;;5056532;28;20154;-61
2021/05/23 06:18:41;;;;;;;8.60;4.70;;;;;;;;;;5056497;28;20025;-60
2021/05/23 06:21:07;;;;;;;39.38;26.42;;;;;;;;;;5056250;28;20036;-60
2021/05/23 06:23:34;;;;;;;37.80;25.63;;;;;;;;;;5056467;28;20029;-55
2021/05/23 06:26:00;;;;;;;59.30;39.10;;;;;;;;;;5056456;28;20028;-55
2021/05/23 06:28:26;;;;;;;30.10;20.98;;;;;;;;;;5056416;28;20048;-60
2021/05/23 06:30:52;;;;;;;9.07;4.22;;;;;;;;;;5056290;28;20373;-59
2021/05/23 06:33:18;;;;;;;12.02;7.85;;;;;;;;;;5038176;28;20037;-60
2021/05/23 06:35:44;;;;;;;110.18;77.30;;;;;;;;;;5056231;28;20025;-61
2021/05/23 06:38:10;;;;;;;13.95;7.13;;;;;;;;;;5056283;28;20469;-60
2021/05/23 06:40:36;;;;;;;7.95;3.95;;;;;;;;;;5056170;28;20088;-61
2021/05/23 06:43:02;;;;;;;8.20;3.42;;;;;;;;;;5056493;28;20044;-60
2021/05/23 06:45:29;;;;;;;5.63;2.85;;;;;;;;;;5055981;28;20396;-56
2021/05/23 06:47:55;;;;;;;13.65;3.63;;;;;;;;;;5038145;28;20033;-60
2021/05/23 06:50:21;;;;;;;7.10;3.50;;;;;;;;;;5055571;28;20021;-60
2021/05/23 06:52:47;;;;;;;18.05;11.23;;;;;;;;;;5056106;28;20322;-61
2021/05/23 06:55:14;;;;;;;7.10;2.78;;;;;;;;;;5055756;28;20558;-60
2021/05/23 06:57:42;;;;;;;16.63;8.23;;;;;;;;;;5056083;28;20066;-61
2021/05/23 07:00:08;;;;;;;10.60;5.50;;;;;;;;;;5055758;28;20057;-56
2021/05/23 07:02:35;;;;;;;7.68;3.65;;;;;;;;;;5055864;28;20064;-56
2021/05/23 07:05:01;;;;;;;8.88;3.13;;;;;;;;;;5055560;28;20031;-56
2021/05/23 07:07:28;;;;;;;6.20;3.00;;;;;;;;;;5055773;28;20025;-60
2021/05/23 07:09:54;;;;;;;6.57;3.78;;;;;;;;;;5055658;28;20017;-61
2021/05/23 07:12:20;;;;;;;8.73;3.05;;;;;;;;;;5055570;28;20032;-60
2021/05/23 07:14:46;;;;;;;6.95;3.15;;;;;;;;;;5056117;28;20028;-61
2021/05/23 07:17:12;;;;;;;7.32;5.20;;;;;;;;;;5055487;28;20029;-59
2021/05/23 07:19:38;;;;;;;3.88;2.47;;;;;;;;;;5055354;28;20104;-56
2021/05/23 07:22:04;;;;;;;7.90;3.80;;;;;;;;;;5055207;28;20469;-61
2021/05/23 07:24:30;;;;;;;9.25;5.85;;;;;;;;;;5054747;28;20061;-62
2021/05/23 07:26:57;;;;;;;7.45;4.20;;;;;;;;;;5055177;28;20032;-61
2021/05/23 07:29:23;;;;;;;7.25;3.63;;;;;;;;;;5055095;28;20155;-59
2021/05/23 07:31:49;;;;;;;9.07;4.10;;;;;;;;;;5055062;28;20469;-58
2021/05/23 07:34:15;;;;;;;7.45;4.25;;;;;;;;;;5055083;28;20029;-61
2021/05/23 07:36:41;;;;;;;6.47;2.28;;;;;;;;;;5055451;28;20027;-60
2021/05/23 07:39:07;;;;;;;3.67;2.42;;;;;;;;;;5055105;28;20104;-60
2021/05/23 07:41:33;;;;;;;5.25;2.67;;;;;;;;;;5054860;28;20458;-60
2021/05/23 07:43:59;;;;;;;10.30;4.60;;;;;;;;;;5055030;28;20018;-58
2021/05/23 07:46:25;;;;;;;5.95;3.17;;;;;;;;;;5054742;28;20086;-58
2021/05/23 07:48:51;;;;;;;4.22;2.28;;;;;;;;;;5054663;28;20048;-59
2021/05/23 07:51:18;;;;;;;6.13;2.25;;;;;;;;;;5054754;28;20052;-57
2021/05/23 07:53:44;;;;;;;3.38;2.20;;;;;;;;;;5054645;28;20075;-59
2021/05/23 07:56:11;;;;;;;6.47;3.55;;;;;;;;;;5054655;28;20069;-55
2021/05/23 07:58:38;;;;;;;3.63;1.90;;;;;;;;;;5054729;28;20021;-60
2021/05/23 08:01:04;;;;;;;4.03;1.38;;;;;;;;;;5054671;28;20419;-62
2021/05/23 08:03:30;;;;;;;7.32;1.58;;;;;;;;;;5054734;28;20029;-58
2021/05/23 08:05:56;;;;;;;6.72;2.15;;;;;;;;;;5054296;28;20021;-58
2021/05/23 08:08:23;;;;;;;16.15;10.45;;;;;;;;;;5054343;28;20021;-57
2021/05/23 08:10:49;;;;;;;74.57;41.25;;;;;;;;;;5054365;28;20048;-56
2021/05/23 08:13:15;;;;;;;5.85;3.00;;;;;;;;;;5071488;28;20044;-55
2021/05/23 08:15:43;;;;;;;16.30;10.13;;;;;;;;;;5072808;28;20179;-55
2021/05/23 08:18:09;;;;;;;8.65;4.30;;;;;;;;;;5070851;28;20043;-57
2021/05/23 08:20:35;;;;;;;31.27;15.68;;;;;;;;;;5072423;28;20020;-56
2021/05/23 08:23:02;;;;;;;15.90;6.75;;;;;;;;;;5072732;28;20051;-55
2021/05/23 08:25:28;;;;;;;24.13;14.05;;;;;;;;;;5072807;28;20388;-56
2021/05/23 08:27:55;;;;;;;34.65;22.95;;;;;;;;;;5074053;28;20025;-57
2021/05/23 08:30:21;;;;;;;53.42;32.80;;;;;;;;;;5073696;28;20099;-56
2021/05/23 08:32:47;;;;;;;13.98;7.85;;;;;;;;;;5073908;28;20024;-53
2021/05/23 08:35:13;;;;;;;46.88;22.33;;;;;;;;;;5073604;28;20145;-53
2021/05/23 08:37:40;;;;;;;222.23;165.80;;;;;;;;;;5073091;28;20031;-52
2021/05/23 08:40:06;;;;;;;67.82;41.10;;;;;;;;;;5073739;28;20024;-52
2021/05/23 08:42:32;;;;;;;188.82;167.73;;;;;;;;;;5073575;28;20029;-54
2021/05/23 08:44:59;;;;;;;21.55;12.25;;;;;;;;;;5073611;28;20483;-53
2021/05/23 08:47:25;;;;;;;6.38;2.95;;;;;;;;;;5073670;28;20430;-51
2021/05/23 08:49:52;;;;;;;89.13;74.45;;;;;;;;;;5073264;28;20059;-53
2021/05/23 08:52:18;;;;;;;7.95;3.53;;;;;;;;;;5073425;28;20052;-55
2021/05/23 08:54:45;;;;;;;21.35;8.85;;;;;;;;;;5073691;28;20425;-55
2021/05/23 08:57:11;;;;;;;3.53;1.60;;;;;;;;;;5072661;28;20032;-57
2021/05/23 08:59:37;;;;;;;3.92;1.20;;;;;;;;;;5072931;28;20023;-57
2021/05/23 09:02:04;;;;;;;10.65;1.52;;;;;;;;;;5072731;28;20499;-57
2021/05/23 09:04:30;;;;;;;6.80;1.67;;;;;;;;;;5072731;28;20056;-57
2021/05/23 09:07:00;;;;;;;5.95;1.02;;;;;;;;;;5072858;28;20028;-56
2021/05/23 09:09:26;;;;;;;4.43;1.10;;;;;;;;;;5070319;28;20017;-57
2021/05/23 09:11:53;;;;;;;6.45;1.42;;;;;;;;;;5073007;28;20029;-56
2021/05/23 09:14:33;;;;;;;5.25;1.35;;;;;;;;;;5072784;28;20025;-55
2021/05/23 09:16:59;;;;;;;10.52;1.92;;;;;;;;;;5071711;28;20020;-56
2021/05/23 09:19:26;;;;;;;2.55;1.10;;;;;;;;;;5072669;28;20017;-57
2021/05/23 09:21:52;;;;;;;7.82;1.70;;;;;;;;;;5073003;28;20045;-61
2021/05/23 09:24:18;;;;;;;4.72;1.70;;;;;;;;;;5073209;28;20025;-57
2021/05/23 09:26:46;;;;;;;3.22;1.20;;;;;;;;;;5073196;28;20047;-54
2021/05/23 09:29:15;;;;;;;11.80;2.20;;;;;;;;;;5055054;28;20040;-58
2021/05/23 09:31:42;;;;;;;10.73;4.72;;;;;;;;;;5072608;28;20028;-58
2021/05/23 09:34:08;;;;;;;9.40;2.67;;;;;;;;;;5072901;28;20020;-57
2021/05/23 09:36:44;;;;;;;4.05;2.00;;;;;;;;;;5073186;28;20025;-58
2021/05/23 09:39:10;;;;;;;19.42;11.63;;;;;;;;;;5072916;28;20024;-57
2021/05/23 09:41:38;;;;;;;6.00;3.03;;;;;;;;;;5072990;28;20027;-55
2021/05/23 09:44:18;;;;;;;2.50;1.33;;;;;;;;;;5073152;28;20024;-62
2021/05/23 09:46:54;;;;;;;5.87;3.37;;;;;;;;;;5072763;28;20020;-56
2021/05/23 09:49:23;;;;;;;23.27;8.77;;;;;;;;;;5076940;28;20029;-55
2021/05/23 09:51:56;;;;;;;2.95;1.30;;;;;;;;;;5076653;28;20044;-56
2021/05/23 09:54:23;;;;;;;26.95;15.07;;;;;;;;;;5076935;28;20029;-55
2021/05/23 09:56:49;;;;;;;4.93;2.33;;;;;;;;;;5076909;28;20025;-57
2021/05/23 09:59:22;;;;;;;4.32;2.17;;;;;;;;;;5076656;28;20021;-56
2021/05/23 10:01:49;;;;;;;16.77;10.13;;;;;;;;;;5076502;28;20037;-55
2021/05/23 10:04:22;;;;;;;38.92;23.75;;;;;;;;;;5076803;28;20051;-57
2021/05/23 10:07:06;;;;;;;11.57;8.43;;;;;;;;;;5076769;28;20032;-56
2021/05/23 10:09:33;;;;;;;8.55;3.72;;;;;;;;;;5076294;28;20021;-55
2021/05/23 10:11:59;;;;;;;23.50;14.10;;;;;;;;;;5076548;28;20020;-55
2021/05/23 10:14:26;;;;;;;4.47;2.35;;;;;;;;;;5076436;28;20150;-56
2021/05/23 10:16:52;;;;;;;16.50;8.98;;;;;;;;;;5076484;28;20020;-54
2021/05/23 10:19:26;;;;;;;4.03;1.90;;;;;;;;;;5076823;28;20016;-55
2021/05/23 10:21:52;;;;;;;30.85;18.55;;;;;;;;;;5076169;28;20036;-54
2021/05/23 10:24:24;;;;;;;9.75;5.28;;;;;;;;;;5076687;28;20161;-56
2021/05/23 10:26:54;;;;;;;9.88;5.43;;;;;;;;;;5076357;28;20021;-53
2021/05/23 10:29:20;;;;;;;4.47;1.90;;;;;;;;;;5076141;28;20024;-55
2021/05/23 10:31:46;;;;;;;4.13;2.20;;;;;;;;;;5076221;28;20020;-55
2021/05/23 10:34:12;;;;;;;13.02;4.78;;;;;;;;;;5055245;28;20116;-54
2021/05/23 10:36:40;;;;;;;72.82;42.30;;;;;;;;;;5046177;28;20028;-53
2021/05/23 10:39:08;;;;;;;20.10;11.30;;;;;;;;;;5044898;28;20107;-55
2021/05/23 10:41:34;;;;;;;7.35;4.90;;;;;;;;;;5045252;28;20110;-55
2021/05/23 10:44:01;;;;;;;6.00;2.90;;;;;;;;;;5045525;28;20311;-57
2021/05/23 10:46:27;;;;;;;5.85;2.53;;;;;;;;;;5044836;28;20053;-57
2021/05/23 10:48:55;;;;;;;4.38;1.45;;;;;;;;;;5045093;28;20114;-55
2021/05/23 10:51:21;;;;;;;3.50;1.40;;;;;;;;;;5045671;28;20047;-56
2021/05/23 10:53:48;;;;;;;4.70;3.30;;;;;;;;;;5044838;28;20032;-55
2021/05/23 10:56:23;;;;;;;10.40;3.40;;;;;;;;;;5044987;28;20025;-55
2021/05/23 10:59:02;;;;;;;6.18;2.30;;;;;;;;;;5045095;28;20385;-55
2021/05/23 11:01:38;;;;;;;7.10;4.85;;;;;;;;;;5044754;28;20037;-58
2021/05/23 11:04:17;;;;;;;4.25;1.65;;;;;;;;;;5044647;28;20021;-58
2021/05/23 11:06:45;;;;;;;16.38;11.02;;;;;;;;;;5046485;28;20093;-58
2021/05/23 11:09:15;;;;;;;17.55;12.00;;;;;;;;;;5044835;28;20096;-57
2021/05/23 11:11:43;;;;;;;13.98;7.60;;;;;;;;;;5044615;28;20107;-57
2021/05/23 11:14:13;;;;;;;71.10;51.88;;;;;;;;;;5045512;28;20040;-57
2021/05/23 11:16:53;;;;;;;23.27;14.40;;;;;;;;;;5044395;28;20025;-56
2021/05/23 11:19:20;;;;;;;11.20;6.50;;;;;;;;;;5045155;28;20025;-57
2021/05/23 11:21:47;;;;;;;16.08;8.65;;;;;;;;;;5048302;28;20037;-56
2021/05/23 11:24:13;;;;;;;25.85;6.78;;;;;;;;;;5049315;28;20307;-57
2021/05/23 11:26:40;;;;;;;29.77;15.75;;;;;;;;;;5047286;28;20159;-56
2021/05/23 11:29:06;;;;;;;20.52;10.68;;;;;;;;;;5045187;28;20036;-57
2021/05/23 11:31:36;;;;;;;58.90;14.45;;;;;;;;;;5044505;28;20024;-58
2021/05/23 11:34:04;;;;;;;10.83;4.03;;;;;;;;;;5044488;28;20359;-57
2021/05/23 11:36:31;;;;;;;8.35;2.38;;;;;;;;;;5045859;28;20037;-57
2021/05/23 11:38:58;;;;;;;13.40;3.08;;;;;;;;;;5045497;28;20056;-56
2021/05/23 11:41:28;;;;;;;34.63;19.80;;;;;;;;;;5048288;28;20082;-57
2021/05/23 11:43:55;;;;;;;20.48;8.73;;;;;;;;;;5044071;28;20033;-56
2021/05/23 11:46:22;;;;;;;33.88;19.73;;;;;;;;;;5044470;28;20123;-56
2021/05/23 11:48:49;;;;;;;28.73;14.70;;;;;;;;;;5045470;28;20119;-58
2021/05/23 11:51:19;;;;;;;64.18;33.58;;;;;;;;;;5043852;28;20109;-57
2021/05/23 11:53:48;;;;;;;14.07;7.55;;;;;;;;;;5044070;28;20029;-57
2021/05/23 11:56:19;;;;;;;24.02;14.00;;;;;;;;;;5044019;28;20029;-57
2021/05/23 11:58:49;;;;;;;11.02;4.90;;;;;;;;;;5043636;28;20025;-58
2021/05/23 12:01:21;;;;;;;15.27;6.20;;;;;;;;;;5044984;28;20031;-57
2021/05/23 12:04:06;;;;;;;10.02;3.50;;;;;;;;;;5043466;28;20561;-57
2021/05/23 12:06:36;;;;;;;12.27;5.38;;;;;;;;;;5043622;28;20107;-56
2021/05/23 12:09:12;;;;;;;13.43;7.20;;;;;;;;;;5043527;28;20020;-57
2021/05/23 12:11:46;;;;;;;7.60;3.10;;;;;;;;;;5043333;28;20028;-56
2021/05/23 12:14:23;;;;;;;4.97;1.83;;;;;;;;;;5043604;28;20813;-57
2021/05/23 12:16:50;;;;;;;2.72;1.60;;;;;;;;;;5045179;28;20567;-56
2021/05/23 12:19:16;;;;;;;10.57;3.20;;;;;;;;;;5044391;28;20113;-57
2021/05/23 12:21:43;;;;;;;5.72;2.20;;;;;;;;;;5043114;28;20102;-57
2021/05/23 12:24:09;;;;;;;11.43;2.95;;;;;;;;;;5042275;28;20028;-57
2021/05/23 12:26:35;;;;;;;4.47;2.22;;;;;;;;;;5048332;28;20485;-56
2021/05/23 12:29:01;;;;;;;7.13;2.00;;;;;;;;;;5044177;28;20842;-56
2021/05/23 12:31:27;;;;;;;10.05;3.33;;;;;;;;;;5043135;28;20162;-56
2021/05/23 12:33:57;;;;;;;17.42;2.80;;;;;;;;;;5043176;28;20021;-56
2021/05/23 12:36:24;;;;;;;4.05;2.95;;;;;;;;;;5043309;28;20025;-58
2021/05/23 12:38:58;;;;;;;5.55;2.15;;;;;;;;;;5043001;28;20020;-56
2021/05/23 12:41:37;;;;;;;7.97;2.35;;;;;;;;;;5043032;28;20090;-56
2021/05/23 12:44:04;;;;;;;5.82;2.03;;;;;;;;;;5044041;28;20132;-56
2021/05/23 12:46:32;;;;;;;6.65;1.88;;;;;;;;;;5042713;28;20020;-56
2021/05/23 12:48:58;;;;;;;5.28;2.33;;;;;;;;;;5042933;28;20032;-57
2021/05/23 12:51:25;;;;;;;5.63;1.80;;;;;;;;;;5042481;28;20564;-55
2021/05/23 12:53:56;;;;;;;7.30;2.00;;;;;;;;;;5042763;28;20075;-56
2021/05/23 12:56:23;;;;;;;4.18;1.75;;;;;;;;;;5043362;28;20020;-57
2021/05/23 12:58:49;;;;;;;7.78;1.80;;;;;;;;;;5043714;28;20029;-57
2021/05/23 13:01:17;;;;;;;8.25;2.20;;;;;;;;;;5042633;28;20025;-56
2021/05/23 13:03:48;;;;;;;9.07;2.10;;;;;;;;;;5042999;28;20031;-57
2021/05/23 13:06:14;;;;;;;6.30;2.15;;;;;;;;;;5042361;28;20104;-56
2021/05/23 13:08:41;;;;;;;4.75;1.77;;;;;;;;;;5042716;28;20033;-56
2021/05/23 13:11:16;;;;;;;3.35;1.50;;;;;;;;;;5043372;28;20025;-56
2021/05/23 13:13:43;;;;;;;7.20;1.77;;;;;;;;;;5042390;28;20504;-55
2021/05/23 13:16:11;;;;;;;3.05;1.33;;;;;;;;;;5042273;28;20055;-56
2021/05/23 13:18:41;;;;;;;11.35;2.17;;;;;;;;;;5024590;28;20126;-57
2021/05/23 13:21:11;;;;;;;3.28;1.40;;;;;;;;;;5043760;28;20028;-57
2021/05/23 13:23:38;;;;;;;9.83;3.73;;;;;;;;;;5041960;28;20037;-57
2021/05/23 13:26:04;;;;;;;10.73;5.13;;;;;;;;;;5042351;28;20021;-57
2021/05/23 13:28:31;;;;;;;7.30;4.18;;;;;;;;;;5042390;28;20036;-58
2021/05/23 13:30:57;;;;;;;10.82;5.80;;;;;;;;;;5042201;28;20029;-57
2021/05/23 13:33:24;;;;;;;9.15;5.72;;;;;;;;;;5042358;28;20021;-58
2021/05/23 13:35:50;;;;;;;13.07;6.40;;;;;;;;;;5042180;28;20039;-57
2021/05/23 13:38:16;;;;;;;19.52;14.35;;;;;;;;;;5042357;28;20021;-57
2021/05/23 13:40:42;;;;;;;23.23;15.75;;;;;;;;;;5041851;28;20037;-54
2021/05/23 13:43:08;;;;;;;31.45;21.00;;;;;;;;;;5042295;28;20036;-55
2021/05/23 13:45:34;;;;;;;84.82;50.92;;;;;;;;;;5042350;28;20370;-55
2021/05/23 13:48:00;;;;;;;14.35;6.70;;;;;;;;;;5042057;28;20021;-55
2021/05/23 13:50:26;;;;;;;72.18;51.20;;;;;;;;;;5042002;28;20075;-56
2021/05/23 13:52:52;;;;;;;103.50;77.63;;;;;;;;;;5043560;28;20116;-56
2021/05/23 13:55:18;;;;;;;119.25;86.50;;;;;;;;;;5042278;28;20454;-57
2021/05/23 13:57:47;;;;;;;49.72;30.88;;;;;;;;;;5042152;28;20036;-56
2021/05/23 14:00:13;;;;;;;72.70;48.63;;;;;;;;;;5042069;28;20021;-57
2021/05/23 14:02:39;;;;;;;153.25;128.13;;;;;;;;;;5042046;28;20818;-56
2021/05/23 14:05:06;;;;;;;16.60;7.55;;;;;;;;;;5041926;28;20057;-55
2021/05/23 14:07:32;;;;;;;11.07;5.53;;;;;;;;;;5042549;28;20789;-57
2021/05/23 14:09:58;;;;;;;102.78;69.07;;;;;;;;;;5041825;28;20075;-56
2021/05/23 14:12:24;;;;;;;20.58;10.85;;;;;;;;;;5041945;28;20020;-57
2021/05/23 14:14:50;;;;;;;107.72;69.32;;;;;;;;;;5041913;28;20071;-56
2021/05/23 14:17:16;;;;;;;162.77;111.38;;;;;;;;;;5042774;28;20106;-55
2021/05/23 14:19:42;;;;;;;8.75;5.32;;;;;;;;;;5042476;28;20032;-54
2021/05/23 14:22:08;;;;;;;45.70;25.77;;;;;;;;;;5041772;28;20072;-56
2021/05/23 14:24:34;;;;;;;19.85;11.70;;;;;;;;;;5041798;28;20036;-57
2021/05/23 14:27:00;;;;;;;14.52;9.00;;;;;;;;;;5042178;28;20024;-57
2021/05/23 14:29:27;;;;;;;12.65;6.63;;;;;;;;;;5041945;28;20777;-58
2021/05/23 14:31:53;;;;;;;17.70;8.90;;;;;;;;;;5041793;28;20036;-56